createdAt,value
2023-03-19T00:00:11.105Z,11.23
2023-03-19T00:03:01.298Z,11.02
2023-03-19T00:05:59.533Z,12.00
2023-03-19T00:09:03.010Z,12.10
2023-03-19T00:11:57.920Z,12.65
2023-03-19T00:14:55.763Z,12.05
2023-03-19T00:17:52.367Z,11.73
2023-03-19T00:20:52.552Z,11.02
2023-03-19T00:23:44.137Z,13.75
2023-03-19T00:26:40.373Z,14.15
2023-03-19T00:29:35.086Z,14.43
2023-03-19T00:32:27.269Z,13.63
2023-03-19T00:35:17.867Z,13.27
2023-03-19T00:38:09.115Z,12.73
2023-03-19T00:40:59.793Z,12.02
2023-03-19T00:43:55.624Z,13.45
2023-03-19T00:46:50.769Z,12.35
2023-03-19T00:49:43.712Z,12.48
2023-03-19T00:52:34.624Z,12.07
2023-03-19T00:55:28.673Z,11.90
2023-03-19T00:58:22.674Z,12.43
2023-03-19T01:01:20.724Z,11.67
2023-03-19T01:04:13.662Z,12.40
2023-03-19T01:07:08.588Z,12.80
2023-03-19T01:10:00.231Z,11.98
2023-03-19T01:12:54.436Z,11.52
2023-03-19T01:15:47.171Z,12.13
2023-03-19T01:18:44.071Z,11.35
2023-03-19T01:21:36.710Z,11.15
2023-03-19T01:24:33.854Z,11.43
2023-03-19T01:27:24.625Z,10.05
2023-03-19T01:30:18.035Z,11.30
2023-03-19T01:33:30.499Z,10.90
2023-03-19T01:36:20.403Z,11.35
2023-03-19T01:39:13.982Z,12.02
2023-03-19T01:42:14.060Z,11.85
2023-03-19T01:45:38.442Z,11.23
2023-03-19T01:48:51.260Z,10.68
2023-03-19T01:51:47.946Z,11.85
2023-03-19T01:55:01.264Z,11.07
2023-03-19T01:57:55.298Z,12.75
2023-03-19T02:00:49.821Z,11.20
2023-03-19T02:03:44.517Z,11.40
2023-03-19T02:06:45.476Z,13.63
2023-03-19T02:09:39.212Z,11.95
2023-03-19T02:12:33.382Z,14.23
2023-03-19T02:18:19.193Z,12.57
2023-03-19T02:21:18.448Z,9.85
2023-03-19T02:24:22.938Z,9.52
2023-03-19T02:27:31.758Z,9.13
2023-03-19T02:30:24.854Z,9.13
2023-03-19T02:33:20.857Z,8.90
2023-03-19T02:36:23.187Z,9.30
2023-03-19T02:39:24.814Z,8.60
2023-03-19T02:42:24.469Z,7.63
2023-03-19T02:45:24.991Z,8.30
2023-03-19T02:48:20.785Z,7.53
2023-03-19T02:51:14.680Z,6.35
2023-03-19T02:54:08.622Z,7.00
2023-03-19T02:56:58.926Z,7.18
2023-03-19T02:59:53.529Z,7.60
2023-03-19T03:02:53.541Z,6.47
2023-03-19T03:05:44.326Z,7.43
2023-03-19T03:08:37.847Z,6.90
2023-03-19T03:11:32.146Z,6.70
2023-03-19T03:14:26.322Z,6.47
2023-03-19T03:17:18.476Z,6.78
2023-03-19T03:20:13.180Z,6.82
2023-03-19T03:23:06.679Z,5.88
2023-03-19T03:26:00.660Z,6.40
2023-03-19T03:28:53.226Z,6.75
2023-03-19T03:31:45.022Z,6.18
2023-03-19T03:34:38.264Z,6.10
2023-03-19T03:37:31.223Z,6.47
2023-03-19T03:40:25.959Z,6.10
2023-03-19T03:43:19.989Z,6.25
2023-03-19T03:49:06.938Z,5.88
2023-03-19T03:51:59.036Z,6.03
2023-03-19T03:54:57.005Z,6.78
2023-03-19T03:57:54.167Z,7.20
2023-03-19T04:00:47.468Z,6.25
2023-03-19T04:03:39.690Z,6.47
2023-03-19T04:06:31.755Z,6.32
2023-03-19T04:09:39.513Z,7.82
2023-03-19T04:12:34.157Z,6.90
2023-03-19T04:15:24.202Z,6.50
2023-03-19T04:18:19.088Z,5.85
2023-03-19T04:21:11.090Z,6.65
2023-03-19T04:24:03.363Z,6.10
2023-03-19T04:26:57.490Z,5.88
2023-03-19T04:29:52.579Z,6.78
2023-03-19T04:32:44.851Z,7.28
2023-03-19T04:35:44.117Z,7.50
2023-03-19T04:38:37.197Z,6.68
2023-03-19T04:41:35.195Z,6.43
2023-03-19T04:44:45.490Z,6.25
2023-03-19T04:47:43.707Z,6.03
2023-03-19T04:50:41.947Z,6.35
2023-03-19T04:53:33.520Z,6.38
2023-03-19T04:56:35.503Z,7.00
2023-03-19T04:59:28.019Z,6.50
2023-03-19T05:02:17.641Z,6.53
2023-03-19T05:05:15.431Z,6.40
2023-03-19T05:08:07.524Z,7.05
2023-03-19T05:11:03.105Z,6.32
2023-03-19T05:14:02.089Z,6.13
2023-03-19T05:17:00.173Z,6.60
2023-03-19T05:20:02.222Z,5.78
2023-03-19T05:23:11.243Z,6.10
2023-03-19T05:26:07.721Z,6.00
2023-03-19T05:29:17.036Z,5.80
2023-03-19T05:32:09.164Z,5.78
2023-03-19T05:35:02.102Z,5.70
2023-03-19T05:37:58.432Z,6.68
2023-03-19T05:40:54.467Z,5.10
2023-03-19T05:43:56.273Z,5.88
2023-03-19T05:47:05.391Z,5.20
2023-03-19T05:49:59.891Z,5.80
2023-03-19T05:52:57.351Z,5.45
2023-03-19T05:55:47.694Z,6.45
2023-03-19T05:58:43.370Z,6.60
2023-03-19T06:01:37.173Z,6.88
2023-03-19T06:04:29.843Z,8.07
2023-03-19T06:07:20.553Z,8.25
2023-03-19T06:10:12.600Z,8.52
2023-03-19T06:13:03.932Z,7.80
2023-03-19T06:16:06.321Z,7.80
2023-03-19T06:19:00.686Z,7.25
2023-03-19T06:21:51.910Z,7.28
2023-03-19T06:24:42.745Z,7.68
2023-03-19T06:27:36.897Z,7.75
2023-03-19T06:30:48.366Z,7.82
2023-03-19T06:34:00.456Z,8.18
2023-03-19T06:37:03.794Z,7.78
2023-03-19T06:39:58.699Z,7.43
2023-03-19T06:42:51.842Z,7.65
2023-03-19T06:45:45.846Z,7.20
2023-03-19T06:48:40.915Z,7.43
2023-03-19T06:51:32.888Z,7.50
2023-03-19T06:54:25.299Z,7.38
2023-03-19T06:57:20.327Z,7.65
2023-03-19T07:00:15.927Z,7.97
2023-03-19T07:03:08.316Z,7.55
2023-03-19T07:05:59.167Z,7.97
2023-03-19T07:08:51.942Z,8.23
2023-03-19T07:11:42.927Z,7.67
2023-03-19T07:14:36.841Z,7.30
2023-03-19T07:17:28.527Z,6.87
2023-03-19T07:20:19.323Z,6.93
2023-03-19T07:23:09.905Z,7.00
2023-03-19T07:26:03.473Z,6.40
2023-03-19T07:28:59.022Z,6.90
2023-03-19T07:31:52.819Z,6.90
2023-03-19T07:34:46.047Z,6.43
2023-03-19T07:37:38.500Z,5.88
2023-03-19T07:40:36.255Z,6.13
2023-03-19T07:43:30.362Z,5.65
2023-03-19T07:46:23.548Z,4.88
2023-03-19T07:49:19.668Z,5.90
2023-03-19T07:52:10.423Z,4.53
2023-03-19T07:55:00.665Z,5.03
2023-03-19T07:57:53.843Z,5.50
2023-03-19T08:00:47.872Z,4.93
2023-03-19T08:03:40.326Z,5.00
2023-03-19T08:06:35.147Z,5.03
2023-03-19T08:09:28.249Z,5.43
2023-03-19T08:12:18.517Z,5.03
2023-03-19T08:15:10.734Z,5.35
2023-03-19T08:18:05.093Z,4.80
2023-03-19T08:20:56.287Z,4.75
2023-03-19T08:23:48.361Z,4.43
2023-03-19T08:26:41.427Z,4.82
2023-03-19T08:29:36.679Z,5.07
2023-03-19T08:32:28.419Z,4.85
2023-03-19T08:35:27.573Z,4.80
2023-03-19T08:38:18.903Z,4.88
2023-03-19T08:41:09.470Z,4.28
2023-03-19T08:44:02.127Z,4.72
2023-03-19T08:49:44.383Z,4.63
2023-03-19T08:52:36.479Z,4.70
2023-03-19T08:55:26.158Z,4.70
2023-03-19T08:58:21.480Z,4.47
2023-03-19T09:01:17.064Z,4.60
2023-03-19T09:04:22.806Z,4.10
2023-03-19T09:07:16.476Z,4.60
2023-03-19T09:10:09.812Z,3.72
2023-03-19T09:13:01.522Z,3.97
2023-03-19T09:15:53.006Z,4.25
2023-03-19T09:18:45.043Z,4.47
2023-03-19T09:21:35.160Z,4.20
2023-03-19T09:24:27.497Z,4.53
2023-03-19T09:27:19.970Z,4.45
2023-03-19T09:30:12.093Z,4.40
2023-03-19T09:33:04.525Z,3.90
2023-03-19T09:35:58.836Z,10.45
2023-03-19T09:38:55.276Z,7.72
2023-03-19T09:42:02.483Z,4.10
2023-03-19T09:44:56.674Z,4.20
2023-03-19T09:47:48.436Z,3.88
2023-03-19T09:50:43.616Z,3.75
2023-03-19T09:53:44.070Z,3.40
2023-03-19T09:56:36.510Z,4.10
2023-03-19T09:59:32.796Z,3.72
2023-03-19T10:02:43.937Z,3.35
2023-03-19T10:05:47.924Z,3.60
2023-03-19T10:08:51.477Z,3.72
2023-03-19T10:15:03.631Z,3.65
2023-03-19T10:18:06.905Z,3.97
2023-03-19T10:23:55.275Z,3.40
2023-03-19T10:26:47.351Z,3.35
2023-03-19T10:29:40.651Z,3.25
2023-03-19T10:32:40.263Z,3.17
2023-03-19T10:35:49.657Z,3.38
2023-03-19T10:38:44.391Z,4.00
2023-03-19T10:41:48.660Z,3.45
2023-03-19T10:47:43.650Z,3.30
2023-03-19T10:50:55.337Z,3.05
2023-03-19T10:53:47.112Z,3.35
2023-03-19T10:56:48.612Z,3.25
2023-03-19T10:59:42.152Z,3.38
2023-03-19T11:02:40.494Z,3.10
2023-03-19T11:05:33.693Z,2.80
2023-03-19T11:08:35.549Z,3.28
2023-03-19T11:11:31.207Z,3.08
2023-03-19T11:14:23.756Z,2.67
2023-03-19T11:17:32.550Z,2.85
2023-03-19T11:20:33.611Z,3.47
2023-03-19T11:23:30.301Z,3.50
2023-03-19T11:26:28.272Z,3.25
2023-03-19T11:29:18.234Z,3.00
2023-03-19T11:32:26.495Z,2.45
2023-03-19T11:35:26.352Z,3.28
2023-03-19T11:38:29.503Z,3.13
2023-03-19T11:41:33.290Z,2.63
2023-03-19T11:44:35.126Z,3.17
2023-03-19T11:47:34.336Z,3.28
2023-03-19T11:50:31.835Z,3.28
2023-03-19T11:53:29.898Z,2.97
2023-03-19T11:56:38.277Z,3.20
2023-03-19T11:59:46.859Z,3.00
2023-03-19T12:02:55.173Z,3.05
2023-03-19T12:05:54.494Z,3.22
2023-03-19T12:08:54.464Z,2.60
2023-03-19T12:11:54.782Z,2.60
2023-03-19T12:14:55.885Z,2.75
2023-03-19T12:17:59.981Z,2.42
2023-03-19T12:21:04.077Z,2.90
2023-03-19T12:24:13.786Z,2.40
2023-03-19T12:27:18.782Z,2.65
2023-03-19T12:30:21.669Z,2.90
2023-03-19T12:33:25.692Z,2.50
2023-03-19T12:36:20.146Z,2.50
2023-03-19T12:39:21.844Z,2.65
2023-03-19T12:42:27.486Z,2.53
2023-03-19T12:45:29.686Z,2.33
2023-03-19T12:48:27.918Z,2.10
2023-03-19T12:51:24.007Z,2.58
2023-03-19T12:54:22.315Z,2.47
2023-03-19T12:57:22.098Z,2.38
2023-03-19T13:00:22.242Z,2.28
2023-03-19T13:03:23.919Z,2.00
2023-03-19T13:06:21.257Z,1.85
2023-03-19T13:09:28.352Z,1.85
2023-03-19T13:12:26.912Z,1.92
2023-03-19T13:15:23.027Z,2.03
2023-03-19T13:18:34.328Z,2.15
2023-03-19T13:21:31.695Z,1.60
2023-03-19T13:24:28.585Z,2.08
2023-03-19T13:27:27.843Z,2.42
2023-03-19T13:30:22.957Z,2.30
2023-03-19T13:33:24.364Z,2.00
2023-03-19T13:36:18.542Z,2.53
2023-03-19T13:39:21.469Z,2.30
2023-03-19T13:42:42.915Z,2.17
2023-03-19T13:45:43.804Z,2.30
2023-03-19T13:48:41.775Z,1.98
2023-03-19T13:51:33.806Z,2.30
2023-03-19T13:54:35.323Z,2.78
2023-03-19T13:57:41.660Z,2.22
2023-03-19T14:01:01.381Z,2.30
2023-03-19T14:03:51.743Z,2.40
2023-03-19T14:06:47.130Z,2.30
2023-03-19T14:09:45.546Z,2.40
2023-03-19T14:12:41.287Z,2.50
2023-03-19T14:15:33.800Z,2.60
2023-03-19T14:21:49.257Z,2.47
2023-03-19T14:24:56.202Z,2.58
2023-03-19T14:27:57.033Z,2.42
2023-03-19T14:30:52.779Z,2.97
2023-03-19T14:33:54.493Z,2.85
2023-03-19T14:36:51.267Z,2.60
2023-03-19T14:39:45.388Z,2.53
2023-03-19T14:42:44.211Z,2.50
2023-03-19T14:45:52.542Z,2.78
2023-03-19T14:49:10.852Z,2.50
2023-03-19T14:52:07.542Z,2.40
2023-03-19T14:55:05.920Z,2.60
2023-03-19T14:58:07.118Z,2.40
2023-03-19T15:01:01.996Z,2.30
2023-03-19T15:04:03.876Z,2.55
2023-03-19T15:06:57.392Z,2.60
2023-03-19T15:09:48.999Z,2.40
2023-03-19T15:13:14.433Z,2.65
2023-03-19T15:19:35.665Z,2.28
2023-03-19T15:22:45.110Z,2.47
2023-03-19T15:25:38.379Z,2.70
2023-03-19T15:28:31.588Z,2.33
2023-03-19T15:31:33.871Z,3.70
2023-03-19T15:34:38.542Z,2.30
2023-03-19T15:37:33.601Z,2.33
2023-03-19T15:40:26.762Z,2.30
2023-03-19T15:43:17.532Z,2.58
2023-03-19T15:46:10.458Z,2.50
2023-03-19T15:49:11.997Z,3.05
2023-03-19T15:52:08.629Z,2.30
2023-03-19T15:55:03.313Z,2.20
2023-03-19T15:57:55.196Z,1.98
2023-03-19T16:00:45.973Z,2.00
2023-03-19T16:03:43.325Z,2.15
2023-03-19T16:06:46.600Z,2.22
2023-03-19T16:09:37.997Z,2.30
2023-03-19T16:12:41.477Z,2.30
2023-03-19T16:15:40.258Z,1.98
2023-03-19T16:18:49.014Z,2.20
2023-03-19T16:21:43.629Z,2.60
2023-03-19T16:24:38.632Z,2.28
2023-03-19T16:27:37.893Z,2.55
2023-03-19T16:30:33.470Z,2.65
2023-03-19T16:33:29.047Z,2.20
2023-03-19T16:36:19.890Z,2.83
2023-03-19T16:39:31.268Z,2.80
2023-03-19T16:42:36.455Z,2.00
2023-03-19T16:45:33.482Z,2.60
2023-03-19T16:48:24.906Z,2.67
2023-03-19T16:51:18.576Z,2.25
2023-03-19T16:57:05.523Z,2.22
2023-03-19T16:59:59.072Z,2.60
2023-03-19T17:02:49.374Z,2.88
2023-03-19T17:05:43.650Z,2.78
2023-03-19T17:08:34.603Z,2.50
2023-03-19T17:11:31.278Z,2.10
2023-03-19T17:14:30.981Z,2.90
2023-03-19T17:17:24.777Z,2.55
2023-03-19T17:20:23.938Z,2.53
2023-03-19T17:23:15.785Z,2.50
2023-03-19T17:26:12.630Z,3.00
2023-03-19T17:29:07.815Z,2.50
2023-03-19T17:32:02.295Z,3.33
2023-03-19T17:34:53.967Z,3.05
2023-03-19T17:37:43.597Z,2.75
2023-03-19T17:40:35.685Z,2.90
2023-03-19T17:43:28.256Z,3.47
2023-03-19T17:46:31.059Z,3.03
2023-03-19T17:49:29.429Z,2.95
2023-03-19T17:52:22.184Z,2.92
2023-03-19T17:55:19.818Z,3.30
2023-03-19T17:58:13.198Z,2.70
2023-03-19T18:01:02.498Z,2.90
2023-03-19T18:03:59.585Z,3.25
2023-03-19T18:06:56.838Z,3.42
2023-03-19T18:09:47.301Z,2.95
2023-03-19T18:12:38.642Z,3.30
2023-03-19T18:15:29.768Z,3.47
2023-03-19T18:18:27.622Z,4.10
2023-03-19T18:21:19.927Z,3.30
2023-03-19T18:24:14.768Z,4.13
2023-03-19T18:27:07.898Z,3.45
2023-03-19T18:29:58.589Z,3.58
2023-03-19T18:32:50.537Z,4.10
2023-03-19T18:35:43.332Z,3.10
2023-03-19T18:38:34.710Z,4.30
2023-03-19T18:41:32.255Z,4.30
2023-03-19T18:44:29.457Z,3.80
2023-03-19T18:47:20.041Z,5.35
2023-03-19T18:50:20.707Z,5.00
2023-03-19T18:53:14.525Z,4.65
2023-03-19T18:56:08.524Z,4.32
2023-03-19T18:59:02.281Z,4.38
2023-03-19T19:02:04.209Z,5.15
2023-03-19T19:05:02.129Z,5.18
2023-03-19T19:07:53.313Z,5.60
2023-03-19T19:10:45.106Z,5.57
2023-03-19T19:13:55.202Z,5.05
2023-03-19T19:16:48.331Z,5.80
2023-03-19T19:19:39.357Z,5.85
2023-03-19T19:22:30.894Z,6.10
2023-03-19T19:25:22.785Z,5.72
2023-03-19T19:28:31.646Z,5.68
2023-03-19T19:31:30.526Z,7.13
2023-03-19T19:34:23.530Z,6.00
2023-03-19T19:37:20.760Z,6.57
2023-03-19T19:40:15.422Z,6.97
2023-03-19T19:43:09.147Z,6.72
2023-03-19T19:46:01.366Z,7.20
2023-03-19T19:48:53.603Z,7.10
2023-03-19T19:51:51.116Z,6.88
2023-03-19T19:54:43.014Z,6.80
2023-03-19T19:57:36.670Z,7.23
2023-03-19T20:00:36.571Z,6.55
2023-03-19T20:03:32.116Z,6.78
2023-03-19T20:06:25.624Z,7.50
2023-03-19T20:09:17.798Z,6.20
2023-03-19T20:12:19.302Z,6.28
2023-03-19T20:15:20.438Z,6.47
2023-03-19T20:18:20.437Z,7.00
2023-03-19T20:21:11.604Z,6.97
2023-03-19T20:24:02.546Z,6.28
2023-03-19T20:26:55.186Z,6.43
2023-03-19T20:29:47.524Z,5.40
2023-03-19T20:32:41.408Z,6.32
2023-03-19T20:35:35.380Z,5.45
2023-03-19T20:38:32.877Z,6.20
2023-03-19T20:41:26.559Z,5.55
2023-03-19T20:44:25.142Z,5.63
2023-03-19T20:47:20.672Z,5.70
2023-03-19T20:50:19.599Z,5.47
2023-03-19T20:53:10.679Z,5.10
2023-03-19T20:56:06.525Z,5.10
2023-03-19T20:58:58.552Z,5.32
2023-03-19T21:01:53.654Z,4.63
2023-03-19T21:04:47.265Z,4.45
2023-03-19T21:07:37.728Z,4.68
2023-03-19T21:10:34.931Z,4.57
2023-03-19T21:13:27.708Z,5.65
2023-03-19T21:16:23.919Z,6.50
2023-03-19T21:19:19.573Z,6.43
2023-03-19T21:22:13.504Z,8.18
2023-03-19T21:25:09.406Z,7.38
2023-03-19T21:28:05.724Z,9.32
2023-03-19T21:30:57.829Z,9.35
2023-03-19T21:33:53.547Z,9.43
2023-03-19T21:36:46.170Z,9.75
2023-03-19T21:39:39.189Z,10.93
2023-03-19T21:42:31.830Z,9.98
2023-03-19T21:45:33.665Z,8.98
2023-03-19T21:48:29.523Z,8.80
2023-03-19T21:51:19.740Z,9.27
2023-03-19T21:54:12.921Z,9.93
2023-03-19T21:57:03.420Z,8.52
2023-03-19T21:59:55.753Z,8.27
2023-03-19T22:02:48.703Z,8.13
2023-03-19T22:05:41.312Z,9.45
2023-03-19T22:08:30.923Z,10.63
2023-03-19T22:11:28.929Z,9.43
2023-03-19T22:14:27.700Z,7.65
2023-03-19T22:17:17.948Z,8.20
2023-03-19T22:20:09.128Z,8.40
2023-03-19T22:23:03.053Z,8.70
2023-03-19T22:25:56.576Z,8.55
2023-03-19T22:28:55.271Z,9.07
2023-03-19T22:31:46.502Z,8.00
2023-03-19T22:34:39.719Z,7.18
2023-03-19T22:37:32.656Z,8.30
2023-03-19T22:40:24.328Z,7.28
2023-03-19T22:43:23.392Z,6.90
2023-03-19T22:46:23.337Z,7.30
2023-03-19T22:49:20.750Z,8.20
2023-03-19T22:52:12.893Z,8.32
2023-03-19T22:55:04.450Z,8.40
2023-03-19T22:57:56.180Z,8.48
2023-03-19T23:00:48.587Z,8.57
2023-03-19T23:03:40.368Z,8.35
2023-03-19T23:06:36.006Z,8.23
2023-03-19T23:09:33.214Z,8.15
2023-03-19T23:12:24.936Z,7.97
2023-03-19T23:15:14.728Z,8.18
2023-03-19T23:18:05.863Z,7.80
2023-03-19T23:21:11.362Z,7.13
2023-03-19T23:24:04.807Z,9.48
2023-03-19T23:27:05.369Z,7.40
2023-03-19T23:29:58.479Z,7.10
2023-03-19T23:32:51.902Z,6.57
2023-03-19T23:35:43.492Z,8.02
2023-03-19T23:38:38.390Z,5.97
2023-03-19T23:41:31.255Z,7.85
2023-03-19T23:44:24.749Z,6.75
2023-03-19T23:47:15.147Z,7.53
2023-03-19T23:50:05.662Z,6.30
2023-03-19T23:52:59.358Z,5.57
2023-03-19T23:56:01.723Z,6.00
2023-03-19T23:58:54.205Z,5.40
